x

Smith Island, Wa (sisw1) Weather Station

11:00am - Tue 22nd Aug 2017 All times are PDT. -7 hours from GMT.

  • Wind
    7mph, 8mph gusts
  • Air Temp 57°f
  • Sea Pressure 1016.5mb
  • Smith Island, Wa
  • Smith Island, Wa

More Historic Weather Station data

Upgrade to MSW Pro to gain access to the past 30 days of data for over 8000 Wavebouys and Weather Stations around the globe.

Join

Comparision Forecast

View Surf forecast
   
Tue 08/22 11:00am 7 8 mph 1016.5mb 57f
10:00am 8 9 mph 1016.4mb 57f
9:00am 6 6 mph 1016.3mb 57f
8:00am 3 3 mph 1016.4mb 55f
7:00am 3 3 mph 1016.1mb 53f
6:00am 5 5 mph 1015.8mb 53f
5:00am 7 7 mph 1015.5mb 53f
4:00am 5 6 mph 1015.5mb 55f
3:00am 3 5 mph 1015.8mb 55f
2:00am  -  2 mph 1015.9mb 55f
1:00am 2 3 mph 1016.1mb 56f
12:00am  -  1 mph 1016.2mb 54f
Mon 08/21 11:00pm 6 6 mph 1016.4mb 56f
10:00pm 6 7 mph 1016.6mb 55f
9:00pm 5 6 mph 1016.7mb 56f
8:00pm 7 7 mph 1016.6mb 57f
7:00pm 7 7 mph 1016.9mb 58f
6:00pm 8 8 mph 1017.4mb 58f
5:00pm 6 8 mph 1018mb 61f
4:00pm 7 8 mph 1018.7mb 62f
3:00pm 8 9 mph 1019.4mb 58f
2:00pm 5 6 mph 1020mb 57f
1:00pm 6 7 mph 1020.5mb 56f
12:00pm 2 3 mph 1020.8mb 56f
11:00am 2 3 mph 1020.6mb 53f
10:00am 1 2 mph 1020.7mb 54f
9:00am  -  1 mph 1020.9mb 53f
8:00am 3 3 mph 1020.9mb 52f
7:00am 5 6 mph 1020.8mb 51f
6:00am 3 7 mph 1020.3mb 52f
5:00am 6 7 mph 1020.3mb 52f
4:00am 6 6 mph 1020.3mb 52f
3:00am 5 6 mph 1020.3mb 53f
2:00am 9 9 mph 1020.4mb 53f
1:00am 2 5 mph 1020.5mb 53f
12:00am 1 5 mph 1020.4mb 54f
Sun 08/20 11:00pm 15 21 mph 1019.9mb 54f
10:00pm 15 21 mph 1019.8mb 55f
9:00pm 15 21 mph 1019.8mb 55f
8:00pm 18 24 mph 1019.3mb 55f
7:00pm 10 13 mph 1019.5mb 55f
6:00pm 14 17 mph 1019.4mb 56f
5:00pm 9 10 mph 1020mb 56f
4:00pm 16 18 mph 1020.2mb 57f
3:00pm 14 15 mph 1020.7mb 57f
2:00pm 8 9 mph 1021.1mb 56f
1:00pm 8 9 mph 1021.3mb 57f
12:00pm 7 9 mph 1021.3mb 59f
11:00am 9 10 mph 1021.5mb 58f
10:00am 10 11 mph 1021.6mb 57f
9:00am 15 15 mph 1021.6mb 55f
8:00am 15 16 mph 1021.1mb 54f
7:00am 11 11 mph 1021mb 53f
6:00am 13 14 mph 1021.2mb 53f
5:00am 10 11 mph 1021mb 53f
4:00am 10 16 mph 1021.2mb 54f
3:00am 14 20 mph 1021.1mb 54f
2:00am 15 22 mph 1021.1mb 54f
1:00am 16 23 mph 1021.3mb 54f
12:00am 17 23 mph 1021.2mb 55f
Sat 08/19 11:00pm 17 26 mph 1021.2mb 55f
10:00pm 18 25 mph 1021.2mb 55f
9:00pm 21 26 mph 1021.3mb 55f
8:00pm 15 24 mph 1021.4mb 55f
7:00pm 20 22 mph 1021.3mb 56f
6:00pm 9 10 mph 1021.8mb 57f
5:00pm 10 16 mph 1022.1mb 58f
4:00pm 7 11 mph 1022.6mb 59f
3:00pm 7 8 mph 1022.9mb 59f
2:00pm 7 8 mph 1023.2mb 60f
1:00pm 7 7 mph 1023.4mb 59f
12:00pm 5 6 mph 1023.6mb 59f
11:00am 5 6 mph 1023.6mb 57f
10:00am 6 7 mph 1023.4mb 57f
9:00am 9 9 mph 1023.1mb 56f
8:00am 10 10 mph 1022.7mb 55f
7:00am 9 11 mph 1022.3mb 54f
6:00am 15 17 mph 1021.9mb 54f
5:00am 18 21 mph 1021.4mb 55f
4:00am 21 23 mph 1021.1mb 54f
3:00am 23 29 mph 1020.9mb 55f
2:00am 26 30 mph 1020.8mb 55f
1:00am 24 30 mph 1020.9mb 55f
12:00am 26 32 mph 1020.7mb 55f
Fri 08/18 11:00pm 28 33 mph 1020.3mb 56f
10:00pm 23 25 mph 1020.3mb 54f
9:00pm 21 22 mph 1020.6mb 54f
8:00pm 29 31 mph 1019.8mb 56f